sensor_id;sensor_type;location;lat;lon;timestamp;temperature;humidity
41437;DHT22;27178;49.460;10.850;2022-12-17T00:00:45;-0.20;74.20
41437;DHT22;27178;49.460;10.850;2022-12-17T00:03:31;-0.20;74.00
41437;DHT22;27178;49.460;10.850;2022-12-17T00:06:18;-0.10;74.00
41437;DHT22;27178;49.460;10.850;2022-12-17T00:09:03;-0.20;74.00
41437;DHT22;27178;49.460;10.850;2022-12-17T00:11:50;-0.20;73.80
41437;DHT22;27178;49.460;10.850;2022-12-17T00:14:36;-0.20;73.70
41437;DHT22;27178;49.460;10.850;2022-12-17T00:17:23;-0.20;73.70
41437;DHT22;27178;49.460;10.850;2022-12-17T00:20:09;-0.20;73.60
41437;DHT22;27178;49.460;10.850;2022-12-17T00:22:58;-0.20;73.70
41437;DHT22;27178;49.460;10.850;2022-12-17T00:25:49;-0.20;73.60
41437;DHT22;27178;49.460;10.850;2022-12-17T00:28:35;-0.30;73.50
41437;DHT22;27178;49.460;10.850;2022-12-17T00:31:22;-0.30;73.50
41437;DHT22;27178;49.460;10.850;2022-12-17T00:34:09;-0.30;73.50
41437;DHT22;27178;49.460;10.850;2022-12-17T00:36:55;-0.30;73.50
41437;DHT22;27178;49.460;10.850;2022-12-17T00:39:41;-0.40;73.40
41437;DHT22;27178;49.460;10.850;2022-12-17T00:42:27;-0.30;73.50
41437;DHT22;27178;49.460;10.850;2022-12-17T00:45:13;-0.40;73.50
41437;DHT22;27178;49.460;10.850;2022-12-17T00:47:59;-0.40;73.50
41437;DHT22;27178;49.460;10.850;2022-12-17T00:50:46;-0.40;73.50
41437;DHT22;27178;49.460;10.850;2022-12-17T00:53:32;-0.50;73.30
41437;DHT22;27178;49.460;10.850;2022-12-17T00:56:17;-0.50;73.40
41437;DHT22;27178;49.460;10.850;2022-12-17T00:59:03;-0.50;73.30
41437;DHT22;27178;49.460;10.850;2022-12-17T01:01:49;-0.50;73.10
41437;DHT22;27178;49.460;10.850;2022-12-17T01:04:35;-0.60;73.00
41437;DHT22;27178;49.460;10.850;2022-12-17T01:07:24;-0.60;73.10
41437;DHT22;27178;49.460;10.850;2022-12-17T01:10:09;-0.70;73.00
41437;DHT22;27178;49.460;10.850;2022-12-17T01:12:55;-0.70;73.00
41437;DHT22;27178;49.460;10.850;2022-12-17T01:15:40;-0.70;72.90
41437;DHT22;27178;49.460;10.850;2022-12-17T01:18:26;-0.80;72.90
41437;DHT22;27178;49.460;10.850;2022-12-17T01:21:12;-0.80;72.90
41437;DHT22;27178;49.460;10.850;2022-12-17T01:23:59;-0.90;72.90
41437;DHT22;27178;49.460;10.850;2022-12-17T01:26:45;-0.90;72.90
41437;DHT22;27178;49.460;10.850;2022-12-17T01:29:31;-0.90;72.70
41437;DHT22;27178;49.460;10.850;2022-12-17T01:32:16;-1.00;72.60
41437;DHT22;27178;49.460;10.850;2022-12-17T01:35:02;-1.10;72.50
41437;DHT22;27178;49.460;10.850;2022-12-17T01:37:48;-1.10;72.60
41437;DHT22;27178;49.460;10.850;2022-12-17T01:40:35;-1.20;72.50
41437;DHT22;27178;49.460;10.850;2022-12-17T01:43:36;-1.20;72.50
41437;DHT22;27178;49.460;10.850;2022-12-17T01:46:23;-1.20;72.50
41437;DHT22;27178;49.460;10.850;2022-12-17T01:49:10;-1.30;72.60
41437;DHT22;27178;49.460;10.850;2022-12-17T01:51:57;-1.40;72.50
41437;DHT22;27178;49.460;10.850;2022-12-17T01:54:45;-1.40;72.50
41437;DHT22;27178;49.460;10.850;2022-12-17T01:57:33;-1.50;72.60
41437;DHT22;27178;49.460;10.850;2022-12-17T02:00:20;-1.50;72.60
41437;DHT22;27178;49.460;10.850;2022-12-17T02:03:12;-1.50;72.60
41437;DHT22;27178;49.460;10.850;2022-12-17T02:06:05;-1.60;72.60
41437;DHT22;27178;49.460;10.850;2022-12-17T02:09:01;-1.60;72.60
41437;DHT22;27178;49.460;10.850;2022-12-17T02:11:55;-1.60;72.80
41437;DHT22;27178;49.460;10.850;2022-12-17T02:14:47;-1.70;72.80
41437;DHT22;27178;49.460;10.850;2022-12-17T02:17:38;-1.70;72.80
41437;DHT22;27178;49.460;10.850;2022-12-17T02:20:30;-1.70;72.80
41437;DHT22;27178;49.460;10.850;2022-12-17T02:23:28;-1.70;72.80
41437;DHT22;27178;49.460;10.850;2022-12-17T02:29:08;-1.80;72.60
41437;DHT22;27178;49.460;10.850;2022-12-17T02:31:54;-1.80;72.80
41437;DHT22;27178;49.460;10.850;2022-12-17T02:34:44;-1.80;72.90
41437;DHT22;27178;49.460;10.850;2022-12-17T02:37:30;-1.90;72.80
41437;DHT22;27178;49.460;10.850;2022-12-17T02:40:17;-1.90;72.90
41437;DHT22;27178;49.460;10.850;2022-12-17T02:43:05;-1.90;72.90
41437;DHT22;27178;49.460;10.850;2022-12-17T02:46:02;-1.90;73.00
41437;DHT22;27178;49.460;10.850;2022-12-17T02:48:48;-1.90;73.00
41437;DHT22;27178;49.460;10.850;2022-12-17T02:51:33;-2.00;73.00
41437;DHT22;27178;49.460;10.850;2022-12-17T02:54:16;-1.90;73.00
41437;DHT22;27178;49.460;10.850;2022-12-17T02:57:02;-2.00;73.00
41437;DHT22;27178;49.460;10.850;2022-12-17T02:59:47;-1.90;74.10
41437;DHT22;27178;49.460;10.850;2022-12-17T03:02:34;-1.90;73.10
41437;DHT22;27178;49.460;10.850;2022-12-17T03:05:21;-2.00;72.80
41437;DHT22;27178;49.460;10.850;2022-12-17T03:08:12;-2.00;72.80
41437;DHT22;27178;49.460;10.850;2022-12-17T03:10:58;-2.00;72.80
41437;DHT22;27178;49.460;10.850;2022-12-17T03:13:44;-2.00;72.80
41437;DHT22;27178;49.460;10.850;2022-12-17T03:20:19;-2.00;72.80
41437;DHT22;27178;49.460;10.850;2022-12-17T03:23:07;-2.10;72.80
41437;DHT22;27178;49.460;10.850;2022-12-17T03:25:56;-2.10;72.80
41437;DHT22;27178;49.460;10.850;2022-12-17T03:28:42;-2.20;72.80
41437;DHT22;27178;49.460;10.850;2022-12-17T03:31:31;-2.10;73.00
41437;DHT22;27178;49.460;10.850;2022-12-17T03:34:16;-2.10;72.90
41437;DHT22;27178;49.460;10.850;2022-12-17T03:37:04;-2.20;72.80
41437;DHT22;27178;49.460;10.850;2022-12-17T03:39:56;-2.20;72.80
41437;DHT22;27178;49.460;10.850;2022-12-17T03:42:42;-2.20;72.80
41437;DHT22;27178;49.460;10.850;2022-12-17T03:45:27;-2.30;72.80
41437;DHT22;27178;49.460;10.850;2022-12-17T03:48:14;-2.30;72.70
41437;DHT22;27178;49.460;10.850;2022-12-17T03:51:00;-2.30;72.80
41437;DHT22;27178;49.460;10.850;2022-12-17T03:53:48;-2.30;72.80
41437;DHT22;27178;49.460;10.850;2022-12-17T03:56:33;-2.30;72.70
41437;DHT22;27178;49.460;10.850;2022-12-17T03:59:19;-2.40;72.60
41437;DHT22;27178;49.460;10.850;2022-12-17T04:02:05;-2.40;72.60
41437;DHT22;27178;49.460;10.850;2022-12-17T04:04:52;-2.40;72.60
41437;DHT22;27178;49.460;10.850;2022-12-17T04:07:45;-2.40;72.60
41437;DHT22;27178;49.460;10.850;2022-12-17T04:10:33;-2.40;72.80
41437;DHT22;27178;49.460;10.850;2022-12-17T04:13:19;-2.50;72.80
41437;DHT22;27178;49.460;10.850;2022-12-17T04:16:07;-2.50;72.80
41437;DHT22;27178;49.460;10.850;2022-12-17T04:18:53;-2.50;72.80
41437;DHT22;27178;49.460;10.850;2022-12-17T04:21:39;-2.50;72.90
41437;DHT22;27178;49.460;10.850;2022-12-17T04:24:24;-2.50;72.90
41437;DHT22;27178;49.460;10.850;2022-12-17T04:27:12;-2.50;72.80
41437;DHT22;27178;49.460;10.850;2022-12-17T04:29:57;-2.60;72.70
41437;DHT22;27178;49.460;10.850;2022-12-17T04:32:43;-2.60;72.80
41437;DHT22;27178;49.460;10.850;2022-12-17T04:35:28;-2.60;72.80
41437;DHT22;27178;49.460;10.850;2022-12-17T04:38:26;-2.60;72.70
41437;DHT22;27178;49.460;10.850;2022-12-17T04:41:11;-2.60;72.80
41437;DHT22;27178;49.460;10.850;2022-12-17T04:43:58;-2.70;72.60
41437;DHT22;27178;49.460;10.850;2022-12-17T04:46:44;-2.70;72.60
41437;DHT22;27178;49.460;10.850;2022-12-17T04:49:30;-2.80;72.60
41437;DHT22;27178;49.460;10.850;2022-12-17T04:52:15;-2.70;72.60
41437;DHT22;27178;49.460;10.850;2022-12-17T04:55:01;-2.80;72.60
41437;DHT22;27178;49.460;10.850;2022-12-17T04:57:47;-2.80;72.70
41437;DHT22;27178;49.460;10.850;2022-12-17T05:00:34;-2.90;72.60
41437;DHT22;27178;49.460;10.850;2022-12-17T05:03:20;-2.80;72.80
41437;DHT22;27178;49.460;10.850;2022-12-17T05:06:08;-2.90;72.80
41437;DHT22;27178;49.460;10.850;2022-12-17T05:08:54;-2.90;72.60
41437;DHT22;27178;49.460;10.850;2022-12-17T05:11:39;-2.90;72.60
41437;DHT22;27178;49.460;10.850;2022-12-17T05:14:25;-2.90;72.60
41437;DHT22;27178;49.460;10.850;2022-12-17T05:17:12;-3.00;72.50
41437;DHT22;27178;49.460;10.850;2022-12-17T05:19:58;-3.00;72.40
41437;DHT22;27178;49.460;10.850;2022-12-17T05:22:43;-3.00;72.60
41437;DHT22;27178;49.460;10.850;2022-12-17T05:25:29;-3.10;72.60
41437;DHT22;27178;49.460;10.850;2022-12-17T05:28:17;-3.10;72.60
41437;DHT22;27178;49.460;10.850;2022-12-17T05:31:03;-3.10;72.50
41437;DHT22;27178;49.460;10.850;2022-12-17T05:33:50;-3.10;72.50
41437;DHT22;27178;49.460;10.850;2022-12-17T05:36:36;-3.10;72.60
41437;DHT22;27178;49.460;10.850;2022-12-17T05:39:22;-3.20;72.40
41437;DHT22;27178;49.460;10.850;2022-12-17T05:42:08;-3.20;72.50
41437;DHT22;27178;49.460;10.850;2022-12-17T05:44:54;-3.20;72.50
41437;DHT22;27178;49.460;10.850;2022-12-17T05:47:39;-3.30;72.50
41437;DHT22;27178;49.460;10.850;2022-12-17T05:50:31;-3.30;72.50
41437;DHT22;27178;49.460;10.850;2022-12-17T05:53:26;-3.30;72.40
41437;DHT22;27178;49.460;10.850;2022-12-17T05:56:11;-3.30;72.40
41437;DHT22;27178;49.460;10.850;2022-12-17T05:58:57;-3.30;72.60
41437;DHT22;27178;49.460;10.850;2022-12-17T06:01:43;-3.40;72.50
41437;DHT22;27178;49.460;10.850;2022-12-17T06:04:29;-3.40;72.60
41437;DHT22;27178;49.460;10.850;2022-12-17T06:07:16;-3.40;72.70
41437;DHT22;27178;49.460;10.850;2022-12-17T06:10:02;-3.40;72.60
41437;DHT22;27178;49.460;10.850;2022-12-17T06:13:03;-3.40;72.60
41437;DHT22;27178;49.460;10.850;2022-12-17T06:15:57;-3.40;72.50
41437;DHT22;27178;49.460;10.850;2022-12-17T06:18:43;-3.40;72.30
41437;DHT22;27178;49.460;10.850;2022-12-17T06:21:29;-3.50;72.30
41437;DHT22;27178;49.460;10.850;2022-12-17T06:24:16;-3.50;72.40
41437;DHT22;27178;49.460;10.850;2022-12-17T06:27:08;-3.50;72.50
41437;DHT22;27178;49.460;10.850;2022-12-17T06:29:54;-3.50;72.60
41437;DHT22;27178;49.460;10.850;2022-12-17T06:32:44;-3.50;72.60
41437;DHT22;27178;49.460;10.850;2022-12-17T06:35:30;-3.50;72.60
41437;DHT22;27178;49.460;10.850;2022-12-17T06:38:30;-3.50;72.60
41437;DHT22;27178;49.460;10.850;2022-12-17T06:41:17;-3.50;72.60
41437;DHT22;27178;49.460;10.850;2022-12-17T06:44:04;-3.60;72.60
41437;DHT22;27178;49.460;10.850;2022-12-17T06:46:50;-3.60;72.70
41437;DHT22;27178;49.460;10.850;2022-12-17T06:49:36;-3.60;72.50
41437;DHT22;27178;49.460;10.850;2022-12-17T06:52:27;-3.60;72.50
41437;DHT22;27178;49.460;10.850;2022-12-17T06:55:13;-3.60;72.50
41437;DHT22;27178;49.460;10.850;2022-12-17T06:58:00;-3.70;72.40
41437;DHT22;27178;49.460;10.850;2022-12-17T07:00:46;-3.70;72.30
41437;DHT22;27178;49.460;10.850;2022-12-17T07:03:32;-3.70;72.20
41437;DHT22;27178;49.460;10.850;2022-12-17T07:06:17;-3.80;72.10
41437;DHT22;27178;49.460;10.850;2022-12-17T07:09:04;-3.80;72.20
41437;DHT22;27178;49.460;10.850;2022-12-17T07:11:49;-3.80;72.20
41437;DHT22;27178;49.460;10.850;2022-12-17T07:14:36;-3.80;72.30
41437;DHT22;27178;49.460;10.850;2022-12-17T07:17:22;-3.80;72.40
41437;DHT22;27178;49.460;10.850;2022-12-17T07:20:09;-3.80;72.20
41437;DHT22;27178;49.460;10.850;2022-12-17T07:22:55;-3.90;72.20
41437;DHT22;27178;49.460;10.850;2022-12-17T07:25:41;-3.90;72.30
41437;DHT22;27178;49.460;10.850;2022-12-17T07:28:27;-3.90;72.30
41437;DHT22;27178;49.460;10.850;2022-12-17T07:31:11;-3.90;72.30
41437;DHT22;27178;49.460;10.850;2022-12-17T07:33:53;-3.90;72.20
41437;DHT22;27178;49.460;10.850;2022-12-17T07:36:39;-3.90;72.20
41437;DHT22;27178;49.460;10.850;2022-12-17T07:39:24;-3.90;72.20
41437;DHT22;27178;49.460;10.850;2022-12-17T07:42:10;-4.00;72.10
41437;DHT22;27178;49.460;10.850;2022-12-17T07:44:56;-4.00;72.10
41437;DHT22;27178;49.460;10.850;2022-12-17T07:47:50;-4.00;72.00
41437;DHT22;27178;49.460;10.850;2022-12-17T07:50:36;-4.00;72.20
41437;DHT22;27178;49.460;10.850;2022-12-17T07:53:22;-4.00;72.20
41437;DHT22;27178;49.460;10.850;2022-12-17T07:56:08;-4.00;72.20
41437;DHT22;27178;49.460;10.850;2022-12-17T07:58:54;-4.10;72.20
41437;DHT22;27178;49.460;10.850;2022-12-17T08:01:40;-4.10;72.40
41437;DHT22;27178;49.460;10.850;2022-12-17T08:04:29;-4.10;72.50
41437;DHT22;27178;49.460;10.850;2022-12-17T08:07:14;-4.10;72.40
41437;DHT22;27178;49.460;10.850;2022-12-17T08:10:00;-4.10;72.50
41437;DHT22;27178;49.460;10.850;2022-12-17T08:12:53;-4.10;72.40
41437;DHT22;27178;49.460;10.850;2022-12-17T08:15:40;-4.10;72.30
41437;DHT22;27178;49.460;10.850;2022-12-17T08:18:26;-4.10;72.40
41437;DHT22;27178;49.460;10.850;2022-12-17T08:21:13;-4.10;72.50
41437;DHT22;27178;49.460;10.850;2022-12-17T08:23:59;-4.10;72.50
41437;DHT22;27178;49.460;10.850;2022-12-17T08:26:45;-4.10;72.50
41437;DHT22;27178;49.460;10.850;2022-12-17T08:29:31;-4.10;72.70
41437;DHT22;27178;49.460;10.850;2022-12-17T08:32:16;-4.10;72.70
41437;DHT22;27178;49.460;10.850;2022-12-17T08:35:03;-4.10;72.90
41437;DHT22;27178;49.460;10.850;2022-12-17T08:37:50;-4.10;72.90
41437;DHT22;27178;49.460;10.850;2022-12-17T08:40:35;-4.10;72.70
41437;DHT22;27178;49.460;10.850;2022-12-17T08:43:21;-4.00;72.50
41437;DHT22;27178;49.460;10.850;2022-12-17T08:46:07;-4.00;72.30
41437;DHT22;27178;49.460;10.850;2022-12-17T08:48:53;-4.10;72.10
41437;DHT22;27178;49.460;10.850;2022-12-17T08:51:38;-4.10;72.20
41437;DHT22;27178;49.460;10.850;2022-12-17T08:54:25;-4.10;72.50
41437;DHT22;27178;49.460;10.850;2022-12-17T08:57:11;-4.10;72.20
41437;DHT22;27178;49.460;10.850;2022-12-17T08:59:58;-4.10;72.20
41437;DHT22;27178;49.460;10.850;2022-12-17T09:02:44;-4.10;72.20
41437;DHT22;27178;49.460;10.850;2022-12-17T09:05:30;-4.10;72.30
41437;DHT22;27178;49.460;10.850;2022-12-17T09:08:16;-4.10;72.40
41437;DHT22;27178;49.460;10.850;2022-12-17T09:11:03;-4.10;72.30
41437;DHT22;27178;49.460;10.850;2022-12-17T09:13:49;-4.00;72.40
41437;DHT22;27178;49.460;10.850;2022-12-17T09:16:35;-4.10;72.40
41437;DHT22;27178;49.460;10.850;2022-12-17T09:19:29;-4.00;72.50
41437;DHT22;27178;49.460;10.850;2022-12-17T09:22:15;-4.00;72.60
41437;DHT22;27178;49.460;10.850;2022-12-17T09:25:01;-4.00;72.70
41437;DHT22;27178;49.460;10.850;2022-12-17T09:27:48;-3.90;72.90
41437;DHT22;27178;49.460;10.850;2022-12-17T09:30:34;-3.90;72.90
41437;DHT22;27178;49.460;10.850;2022-12-17T09:33:20;-3.90;73.10
41437;DHT22;27178;49.460;10.850;2022-12-17T09:36:07;-3.90;73.10
41437;DHT22;27178;49.460;10.850;2022-12-17T09:38:53;-3.90;73.10
41437;DHT22;27178;49.460;10.850;2022-12-17T09:41:44;-3.80;73.40
41437;DHT22;27178;49.460;10.850;2022-12-17T09:44:39;-3.80;73.50
41437;DHT22;27178;49.460;10.850;2022-12-17T09:47:35;-3.70;73.60
41437;DHT22;27178;49.460;10.850;2022-12-17T09:50:24;-3.70;73.70
41437;DHT22;27178;49.460;10.850;2022-12-17T09:53:19;-3.70;73.70
41437;DHT22;27178;49.460;10.850;2022-12-17T09:56:06;-3.60;73.80
41437;DHT22;27178;49.460;10.850;2022-12-17T09:58:54;-3.50;73.70
41437;DHT22;27178;49.460;10.850;2022-12-17T10:01:41;-3.50;73.70
41437;DHT22;27178;49.460;10.850;2022-12-17T10:04:32;-3.50;73.90
41437;DHT22;27178;49.460;10.850;2022-12-17T10:07:22;-3.40;75.00
41437;DHT22;27178;49.460;10.850;2022-12-17T10:10:17;-3.40;74.30
41437;DHT22;27178;49.460;10.850;2022-12-17T10:13:10;-3.30;74.40
41437;DHT22;27178;49.460;10.850;2022-12-17T10:15:56;-3.30;74.30
41437;DHT22;27178;49.460;10.850;2022-12-17T10:18:44;-3.20;74.40
41437;DHT22;27178;49.460;10.850;2022-12-17T10:21:30;-3.20;74.30
41437;DHT22;27178;49.460;10.850;2022-12-17T10:24:16;-3.10;74.30
41437;DHT22;27178;49.460;10.850;2022-12-17T10:27:17;-3.00;74.30
41437;DHT22;27178;49.460;10.850;2022-12-17T10:30:14;-3.00;74.30
41437;DHT22;27178;49.460;10.850;2022-12-17T10:33:04;-3.00;74.30
41437;DHT22;27178;49.460;10.850;2022-12-17T10:36:19;-2.90;74.40
41437;DHT22;27178;49.460;10.850;2022-12-17T10:39:10;-2.80;74.50
41437;DHT22;27178;49.460;10.850;2022-12-17T10:41:59;-2.80;74.50
41437;DHT22;27178;49.460;10.850;2022-12-17T10:45:00;-2.70;74.50
41437;DHT22;27178;49.460;10.850;2022-12-17T10:47:46;-2.60;74.50
41437;DHT22;27178;49.460;10.850;2022-12-17T10:50:32;-2.60;74.50
41437;DHT22;27178;49.460;10.850;2022-12-17T10:53:21;-2.60;74.50
41437;DHT22;27178;49.460;10.850;2022-12-17T10:56:18;-2.50;74.50
41437;DHT22;27178;49.460;10.850;2022-12-17T10:59:10;-2.40;74.50
41437;DHT22;27178;49.460;10.850;2022-12-17T11:01:57;-2.40;74.50
41437;DHT22;27178;49.460;10.850;2022-12-17T11:04:58;-2.30;74.50
41437;DHT22;27178;49.460;10.850;2022-12-17T11:07:44;-2.40;74.30
41437;DHT22;27178;49.460;10.850;2022-12-17T11:10:36;-2.30;74.50
41437;DHT22;27178;49.460;10.850;2022-12-17T11:13:28;-2.20;74.60
41437;DHT22;27178;49.460;10.850;2022-12-17T11:16:21;-2.20;74.60
41437;DHT22;27178;49.460;10.850;2022-12-17T11:19:25;-2.10;74.50
41437;DHT22;27178;49.460;10.850;2022-12-17T11:22:21;-2.10;74.50
41437;DHT22;27178;49.460;10.850;2022-12-17T11:25:39;-2.00;74.60
41437;DHT22;27178;49.460;10.850;2022-12-17T11:28:29;-1.40;75.00
41437;DHT22;27178;49.460;10.850;2022-12-17T11:31:27;-1.90;74.70
41437;DHT22;27178;49.460;10.850;2022-12-17T11:34:23;-1.80;74.70
41437;DHT22;27178;49.460;10.850;2022-12-17T11:37:16;-1.80;74.60
41437;DHT22;27178;49.460;10.850;2022-12-17T11:40:15;-1.80;74.60
41437;DHT22;27178;49.460;10.850;2022-12-17T11:43:14;-1.70;74.70
41437;DHT22;27178;49.460;10.850;2022-12-17T11:46:08;-1.70;74.60
41437;DHT22;27178;49.460;10.850;2022-12-17T11:49:12;-1.60;74.70
41437;DHT22;27178;49.460;10.850;2022-12-17T11:52:05;-1.60;74.50
41437;DHT22;27178;49.460;10.850;2022-12-17T11:54:59;-1.50;74.50
41437;DHT22;27178;49.460;10.850;2022-12-17T11:57:53;-1.40;74.60
41437;DHT22;27178;49.460;10.850;2022-12-17T12:00:50;-1.40;74.60
41437;DHT22;27178;49.460;10.850;2022-12-17T12:03:43;-1.40;74.60
41437;DHT22;27178;49.460;10.850;2022-12-17T12:06:34;-1.40;74.50
41437;DHT22;27178;49.460;10.850;2022-12-17T12:09:27;-1.30;74.60
41437;DHT22;27178;49.460;10.850;2022-12-17T12:12:23;-1.30;74.60
41437;DHT22;27178;49.460;10.850;2022-12-17T12:15:22;-1.20;74.70
41437;DHT22;27178;49.460;10.850;2022-12-17T12:18:32;-1.10;74.80
41437;DHT22;27178;49.460;10.850;2022-12-17T12:21:35;-1.10;74.70
41437;DHT22;27178;49.460;10.850;2022-12-17T12:24:44;-1.00;74.70
41437;DHT22;27178;49.460;10.850;2022-12-17T12:27:37;-0.90;74.70
41437;DHT22;27178;49.460;10.850;2022-12-17T12:30:31;-0.90;74.60
41437;DHT22;27178;49.460;10.850;2022-12-17T12:33:27;-0.90;74.50
41437;DHT22;27178;49.460;10.850;2022-12-17T12:36:18;-0.80;74.50
41437;DHT22;27178;49.460;10.850;2022-12-17T12:39:11;-0.80;74.60
41437;DHT22;27178;49.460;10.850;2022-12-17T12:42:00;-0.70;74.60
41437;DHT22;27178;49.460;10.850;2022-12-17T12:44:50;-0.70;74.60
41437;DHT22;27178;49.460;10.850;2022-12-17T12:47:45;-0.70;74.50
41437;DHT22;27178;49.460;10.850;2022-12-17T12:50:56;-0.60;74.50
41437;DHT22;27178;49.460;10.850;2022-12-17T12:53:54;-0.30;74.80
41437;DHT22;27178;49.460;10.850;2022-12-17T12:56:40;-0.50;74.70
41437;DHT22;27178;49.460;10.850;2022-12-17T12:59:28;-0.50;74.70
41437;DHT22;27178;49.460;10.850;2022-12-17T13:02:24;-0.40;74.90
41437;DHT22;27178;49.460;10.850;2022-12-17T13:05:32;-0.30;75.30
41437;DHT22;27178;49.460;10.850;2022-12-17T13:08:18;-0.10;75.70
41437;DHT22;27178;49.460;10.850;2022-12-17T13:10:48;0.10;75.90
41437;DHT22;27178;49.460;10.850;2022-12-17T13:13:29;0.30;77.10
41437;DHT22;27178;49.460;10.850;2022-12-17T13:16:02;0.50;76.10
41437;DHT22;27178;49.460;10.850;2022-12-17T13:18:33;0.80;76.10
41437;DHT22;27178;49.460;10.850;2022-12-17T13:21:04;1.00;75.80
41437;DHT22;27178;49.460;10.850;2022-12-17T13:23:35;1.30;75.60
41437;DHT22;27178;49.460;10.850;2022-12-17T13:26:20;1.50;75.20
41437;DHT22;27178;49.460;10.850;2022-12-17T13:28:59;1.70;74.70
41437;DHT22;27178;49.460;10.850;2022-12-17T13:31:30;1.90;74.50
41437;DHT22;27178;49.460;10.850;2022-12-17T13:34:11;2.20;74.40
41437;DHT22;27178;49.460;10.850;2022-12-17T13:36:45;2.40;74.10
41437;DHT22;27178;49.460;10.850;2022-12-17T13:39:28;2.60;73.50
41437;DHT22;27178;49.460;10.850;2022-12-17T13:41:59;2.70;73.00
41437;DHT22;27178;49.460;10.850;2022-12-17T13:44:30;2.90;72.90
41437;DHT22;27178;49.460;10.850;2022-12-17T13:47:01;3.00;72.60
41437;DHT22;27178;49.460;10.850;2022-12-17T13:49:30;3.10;72.10
41437;DHT22;27178;49.460;10.850;2022-12-17T13:52:00;3.20;71.70
41437;DHT22;27178;49.460;10.850;2022-12-17T13:54:38;3.30;70.90
41437;DHT22;27178;49.460;10.850;2022-12-17T13:57:08;3.20;69.90
41437;DHT22;27178;49.460;10.850;2022-12-17T13:59:37;3.20;69.20
41437;DHT22;27178;49.460;10.850;2022-12-17T14:02:20;3.10;68.50
41437;DHT22;27178;49.460;10.850;2022-12-17T14:04:55;2.80;68.20
41437;DHT22;27178;49.460;10.850;2022-12-17T14:07:32;2.60;68.00
41437;DHT22;27178;49.460;10.850;2022-12-17T14:10:03;2.40;67.90
41437;DHT22;27178;49.460;10.850;2022-12-17T14:12:33;2.20;68.00
41437;DHT22;27178;49.460;10.850;2022-12-17T14:15:04;2.00;68.10
41437;DHT22;27178;49.460;10.850;2022-12-17T14:17:37;1.80;68.30
41437;DHT22;27178;49.460;10.850;2022-12-17T14:20:11;1.60;68.50
41437;DHT22;27178;49.460;10.850;2022-12-17T14:22:42;1.50;68.80
41437;DHT22;27178;49.460;10.850;2022-12-17T14:25:20;1.30;69.00
41437;DHT22;27178;49.460;10.850;2022-12-17T14:27:53;1.20;69.10
41437;DHT22;27178;49.460;10.850;2022-12-17T14:30:24;1.00;69.30
41437;DHT22;27178;49.460;10.850;2022-12-17T14:32:58;0.90;69.40
41437;DHT22;27178;49.460;10.850;2022-12-17T14:35:28;0.80;69.60
41437;DHT22;27178;49.460;10.850;2022-12-17T14:37:57;0.70;69.90
41437;DHT22;27178;49.460;10.850;2022-12-17T14:40:26;0.60;70.00
41437;DHT22;27178;49.460;10.850;2022-12-17T14:42:58;0.50;69.90
41437;DHT22;27178;49.460;10.850;2022-12-17T14:45:27;0.40;70.20
41437;DHT22;27178;49.460;10.850;2022-12-17T14:47:57;0.30;70.40
41437;DHT22;27178;49.460;10.850;2022-12-17T14:50:29;0.30;70.50
41437;DHT22;27178;49.460;10.850;2022-12-17T14:52:59;0.20;70.50
41437;DHT22;27178;49.460;10.850;2022-12-17T14:55:35;0.20;70.70
41437;DHT22;27178;49.460;10.850;2022-12-17T14:58:16;0.10;70.70
41437;DHT22;27178;49.460;10.850;2022-12-17T15:00:47;0.00;70.80
41437;DHT22;27178;49.460;10.850;2022-12-17T15:03:19;-0.10;70.90
41437;DHT22;27178;49.460;10.850;2022-12-17T15:05:52;-0.10;71.00
41437;DHT22;27178;49.460;10.850;2022-12-17T15:08:22;-0.20;72.00
41437;DHT22;27178;49.460;10.850;2022-12-17T15:10:52;-0.20;71.20
41437;DHT22;27178;49.460;10.850;2022-12-17T15:13:20;-0.30;71.30
41437;DHT22;27178;49.460;10.850;2022-12-17T15:15:49;-0.40;71.30
41437;DHT22;27178;49.460;10.850;2022-12-17T15:18:18;-0.40;71.20
41437;DHT22;27178;49.460;10.850;2022-12-17T15:20:46;-0.40;71.40
41437;DHT22;27178;49.460;10.850;2022-12-17T15:23:16;-0.50;71.40
41437;DHT22;27178;49.460;10.850;2022-12-17T15:25:46;-0.50;71.50
41437;DHT22;27178;49.460;10.850;2022-12-17T15:28:17;-0.60;71.60
41437;DHT22;27178;49.460;10.850;2022-12-17T15:30:46;-0.60;71.60
41437;DHT22;27178;49.460;10.850;2022-12-17T15:33:15;-0.60;71.70
41437;DHT22;27178;49.460;10.850;2022-12-17T15:35:44;-0.70;71.70
41437;DHT22;27178;49.460;10.850;2022-12-17T15:38:12;-0.70;71.80
41437;DHT22;27178;49.460;10.850;2022-12-17T15:40:41;-0.70;71.80
41437;DHT22;27178;49.460;10.850;2022-12-17T15:43:10;-0.80;71.70
41437;DHT22;27178;49.460;10.850;2022-12-17T15:45:41;-0.80;71.80
41437;DHT22;27178;49.460;10.850;2022-12-17T15:48:11;-0.80;71.80
41437;DHT22;27178;49.460;10.850;2022-12-17T15:50:39;-0.90;71.80
41437;DHT22;27178;49.460;10.850;2022-12-17T15:53:08;-0.90;72.00
41437;DHT22;27178;49.460;10.850;2022-12-17T15:55:37;-1.00;72.00
41437;DHT22;27178;49.460;10.850;2022-12-17T15:58:07;-1.00;72.20
41437;DHT22;27178;49.460;10.850;2022-12-17T16:00:37;-1.00;72.20
41437;DHT22;27178;49.460;10.850;2022-12-17T16:03:07;-0.90;72.00
41437;DHT22;27178;49.460;10.850;2022-12-17T16:05:36;-1.10;72.00
41437;DHT22;27178;49.460;10.850;2022-12-17T16:08:04;-1.10;72.10
41437;DHT22;27178;49.460;10.850;2022-12-17T16:10:34;-1.10;72.20
41437;DHT22;27178;49.460;10.850;2022-12-17T16:13:02;-1.20;72.20
41437;DHT22;27178;49.460;10.850;2022-12-17T16:15:31;-1.20;72.20
41437;DHT22;27178;49.460;10.850;2022-12-17T16:18:00;-1.20;72.20
41437;DHT22;27178;49.460;10.850;2022-12-17T16:20:29;-1.20;72.40
41437;DHT22;27178;49.460;10.850;2022-12-17T16:22:58;-1.30;72.60
41437;DHT22;27178;49.460;10.850;2022-12-17T16:25:27;-1.30;72.60
41437;DHT22;27178;49.460;10.850;2022-12-17T16:27:55;-1.30;72.70
41437;DHT22;27178;49.460;10.850;2022-12-17T16:30:24;-1.30;72.90
41437;DHT22;27178;49.460;10.850;2022-12-17T16:32:52;-1.30;72.90
41437;DHT22;27178;49.460;10.850;2022-12-17T16:35:21;-1.40;72.50
41437;DHT22;27178;49.460;10.850;2022-12-17T16:37:51;-1.30;72.70
41437;DHT22;27178;49.460;10.850;2022-12-17T16:40:19;-1.40;72.60
41437;DHT22;27178;49.460;10.850;2022-12-17T16:42:48;-1.40;72.60
41437;DHT22;27178;49.460;10.850;2022-12-17T16:45:16;-1.40;72.90
41437;DHT22;27178;49.460;10.850;2022-12-17T16:47:45;-1.40;72.90
41437;DHT22;27178;49.460;10.850;2022-12-17T16:50:14;-1.50;72.80
41437;DHT22;27178;49.460;10.850;2022-12-17T16:52:43;-1.50;72.70
41437;DHT22;27178;49.460;10.850;2022-12-17T16:55:13;-1.50;72.80
41437;DHT22;27178;49.460;10.850;2022-12-17T16:57:41;-1.60;72.80
41437;DHT22;27178;49.460;10.850;2022-12-17T17:00:10;-1.60;72.80
41437;DHT22;27178;49.460;10.850;2022-12-17T17:02:39;-1.60;72.80
41437;DHT22;27178;49.460;10.850;2022-12-17T17:05:08;-1.60;72.80
41437;DHT22;27178;49.460;10.850;2022-12-17T17:07:36;-1.70;72.80
41437;DHT22;27178;49.460;10.850;2022-12-17T17:10:05;-1.70;72.80